Time;durP1;ratioP1;P1;durP2;ratioP2;P2;SDS_P1;SDS_P2;PMS_P1;PMS_P2;Temp;Humidity;BMP_temperature;BMP_pressure;BME280_temperature;BME280_humidity;BME280_pressure;Samples;Min_cycle;Max_cycle;Signal;HPM_P1;HPM_P2
2023/01/13 00:03:39;;;;;;;1.55;0.45;;;;;;;8.04;96.77;99824.84;9932323;29;20419;-84
2023/01/13 00:08:41;;;;;;;0.03;0.03;;;;;;;8.10;96.68;99812.75;9927294;29;20123;-83
2023/01/13 00:13:44;;;;;;;0.10;0.10;;;;;;;8.08;96.82;99814.47;9919422;29;20150;-82
2023/01/13 00:18:46;;;;;;;0.20;0.13;;;;;;;8.03;97.00;99817.88;9938105;29;20117;-83
2023/01/13 00:23:50;;;;;;;0.65;0.50;;;;;;;8.00;97.02;99823.06;9932062;29;20367;-83
2023/01/13 00:28:58;;;;;;;0.88;0.30;;;;;;;7.97;97.04;99829.09;9907928;29;20555;-83
2023/01/13 00:34:01;;;;;;;0.10;0.10;;;;;;;8.02;97.13;99822.22;9935407;29;20066;-83
2023/01/13 00:39:02;;;;;;;2.80;1.25;;;;;;;8.07;97.52;99830.09;9931698;29;20055;-83
2023/01/13 00:44:04;;;;;;;0.80;0.63;;;;;;;7.96;97.36;99838.66;9922951;29;20059;-83
2023/01/13 00:49:05;;;;;;;0.15;0.15;;;;;;;7.90;97.40;99830.78;9939712;29;20050;-83
2023/01/13 00:54:07;;;;;;;3.90;0.50;;;;;;;7.83;97.18;99833.28;9925513;29;20051;-84
2023/01/13 00:59:11;;;;;;;0.10;0.10;;;;;;;7.78;97.10;99834.09;9936780;29;20555;-84
2023/01/13 01:04:12;;;;;;;0.10;0.10;;;;;;;7.72;97.14;99846.19;9910005;29;20123;-84
2023/01/13 01:09:15;;;;;;;1.20;0.35;;;;;;;7.68;97.37;99847.84;9897083;29;20055;-85
2023/01/13 01:14:17;;;;;;;0.63;0.45;;;;;;;7.61;96.85;99836.47;9927089;29;20055;-84
2023/01/13 01:19:19;;;;;;;0.80;0.50;;;;;;;7.48;96.59;99849.31;9946360;29;20070;-85
2023/01/13 01:24:21;;;;;;;1.98;0.75;;;;;;;7.51;96.37;99857.19;9916439;29;20075;-86
2023/01/13 01:29:22;;;;;;;1.75;0.73;;;;;;;7.42;95.87;99856.16;9936553;29;20067;-86
2023/01/13 01:34:24;;;;;;;4.65;1.65;;;;;;;7.30;95.72;99845.56;9929460;29;20499;-86
2023/01/13 01:39:26;;;;;;;0.32;0.32;;;;;;;7.30;95.34;99855.13;9924284;29;20520;-85
2023/01/13 01:44:47;;;;;;;0.95;0.80;;;;;;;7.18;94.99;99851.47;9907291;29;20051;-86
2023/01/13 01:49:55;;;;;;;0.35;0.35;;;;;;;7.14;94.18;99854.00;9930882;29;20057;-86
2023/01/13 01:55:20;;;;;;;0.63;0.32;;;;;;;7.04;93.78;99853.84;9932689;29;20071;-86
2023/01/13 02:00:27;;;;;;;4.28;1.30;;;;;;;6.99;93.45;99863.28;9945977;29;20055;-87
2023/01/13 02:05:38;;;;;;;1.77;0.98;;;;;;;6.93;93.36;99867.53;9920865;29;20051;-87
2023/01/13 02:10:51;;;;;;;0.73;0.43;;;;;;;-147.53;100.00;57128.34;9910468;29;20078;-88
2023/01/13 02:16:26;;;;;;;0.25;0.25;;;;;;;-147.53;100.00;57128.34;9929333;29;20061;-89
2023/01/13 02:22:39;;;;;;;10.80;1.55;;;;;;;6.95;93.27;99869.31;9905569;29;20050;-88
2023/01/13 02:35:09;;;;;;;2.50;1.00;;;;;;;6.74;93.25;99869.81;9864933;29;20064;-89
2023/01/13 02:56:00;;;;;;;0.45;0.45;;;;;;;6.65;93.02;99874.84;10371494;24;20093;-88
2023/01/13 03:00:50;;;;;;;0.10;0.10;;;;;;;6.70;92.67;99868.88;9944552;29;20448;-87
2023/01/13 03:06:26;;;;;;;;;;;;;;;;;;;;;
2023/01/13 03:12:34;;;;;;;0.88;0.70;;;;;;;6.67;92.16;99860.16;9967029;29;20134;-89
2023/01/13 03:18:42;;;;;;;4.65;1.55;;;;;;;6.68;91.92;99854.06;9941252;29;20066;-89
2023/01/13 03:24:33;;;;;;;0.10;0.10;;;;;;;6.60;91.72;99835.72;9925566;29;20066;-89
2023/01/13 03:30:26;;;;;;;3.33;1.75;;;;;;;6.51;91.68;99836.44;9861817;29;20067;-90
2023/01/13 03:36:40;;;;;;;4.15;1.15;;;;;;;6.57;91.52;99851.28;9953949;29;20070;-88
2023/01/13 03:42:37;;;;;;;6.22;1.27;;;;;;;6.47;91.07;99839.84;9947661;29;20415;-89
2023/01/13 03:48:46;;;;;;;2.30;1.30;;;;;;;6.48;90.80;99843.31;9938904;29;20050;-90
2023/01/13 03:54:24;;;;;;;1.48;0.93;;;;;;;6.58;90.29;99841.78;9954964;29;20083;-89
2023/01/13 04:00:20;;;;;;;0.43;0.32;;;;;;;6.50;90.03;99839.91;9956879;24;20062;-89
2023/01/13 04:06:15;;;;;;;2.15;0.75;;;;;;;6.45;89.99;99825.06;9929551;29;20058;-89
2023/01/13 04:11:34;;;;;;;2.00;0.40;;;;;;;6.51;89.87;99840.78;9937323;29;20089;-90
2023/01/13 04:17:03;;;;;;;1.75;0.45;;;;;;;6.51;89.74;99815.63;9919789;29;20058;-89
2023/01/13 04:22:15;;;;;;;1.50;0.85;;;;;;;6.47;89.69;99806.03;9923150;29;20608;-90
2023/01/13 04:27:38;;;;;;;0.20;0.20;;;;;;;6.40;89.87;99798.97;9910126;29;20423;-89
2023/01/13 04:32:56;;;;;;;4.15;1.60;;;;;;;6.43;89.95;99798.16;9920888;29;20544;-89
2023/01/13 04:38:09;;;;;;;1.88;1.50;;;;;;;6.49;90.04;99791.34;9942800;29;20394;-89
2023/01/13 04:43:22;;;;;;;1.15;1.05;;;;;;;6.47;89.75;99800.84;9923524;29;20311;-89
2023/01/13 04:48:27;;;;;;;2.00;0.80;;;;;;;6.45;89.84;99796.44;9940657;29;20071;-89
2023/01/13 04:53:29;;;;;;;0.55;0.20;;;;;;;6.52;89.51;99788.78;9909839;29;20062;-88
2023/01/13 04:58:34;;;;;;;8.00;1.77;;;;;;;6.54;89.59;99796.63;9914068;29;20105;-88
2023/01/13 05:03:40;;;;;;;0.20;0.20;;;;;;;6.51;89.50;99799.16;9939591;29;20537;-88
2023/01/13 05:08:56;;;;;;;1.10;0.55;;;;;;;6.49;89.40;99793.94;9924568;29;20404;-89
2023/01/13 05:19:55;;;;;;;0.55;0.30;;;;;;;6.52;89.23;99780.97;9923601;29;20111;-88
2023/01/13 05:25:20;;;;;;;2.70;0.77;;;;;;;6.58;89.10;99789.75;9898036;29;20098;-88
2023/01/13 05:30:32;;;;;;;0.45;0.35;;;;;;;6.68;89.03;99786.44;9913350;29;20058;-88
2023/01/13 05:35:46;;;;;;;0.60;0.43;;;;;;;6.70;88.94;99779.56;9925899;29;20062;-88
2023/01/13 05:46:28;;;;;;;6.80;1.02;;;;;;;6.74;88.08;99778.75;9910111;29;20066;-87
2023/01/13 05:51:31;;;;;;;1.67;0.95;;;;;;;6.85;87.81;99784.13;9918147;29;20060;-87
2023/01/13 05:56:34;;;;;;;2.90;1.27;;;;;;;6.81;87.49;99779.72;9923476;29;20055;-87
2023/01/13 06:01:36;;;;;;;0.20;0.20;;;;;;;6.78;87.45;99782.28;9924485;29;20074;-87
2023/01/13 06:06:38;;;;;;;0.03;0.03;;;;;;;6.67;87.37;99782.09;9909061;29;20055;-87
2023/01/13 06:11:41;;;;;;;3.72;0.68;;;;;;;6.69;87.26;99780.38;9909663;29;20057;-87
2023/01/13 06:16:46;;;;;;;0.32;0.20;;;;;;;6.60;87.35;99782.84;9911135;29;20055;-88
2023/01/13 06:21:56;;;;;;;2.53;1.58;;;;;;;6.55;87.30;99786.22;9914080;29;20505;-89
2023/01/13 06:27:02;;;;;;;0.57;0.43;;;;;;;6.58;87.32;99781.94;9937123;29;20062;-88
2023/01/13 06:32:13;;;;;;;0.70;0.57;;;;;;;6.48;87.10;99799.97;9946676;29;20087;-88
2023/01/13 06:37:31;;;;;;;1.20;0.80;;;;;;;6.49;87.54;99799.13;9908242;29;20055;-85
2023/01/13 06:48:09;;;;;;;1.10;0.63;;;;;;;6.32;87.71;99793.63;9932917;29;20050;-89
2023/01/13 06:53:20;;;;;;;0.70;0.35;;;;;;;6.46;87.76;99791.28;9917856;29;20067;-88
2023/01/13 06:58:37;;;;;;;0.63;0.60;;;;;;;6.40;87.75;99796.38;9914147;29;20055;-88
2023/01/13 07:03:45;;;;;;;3.92;0.43;;;;;;;6.37;87.61;99791.97;9963140;24;20231;-87
2023/01/13 07:08:50;;;;;;;0.57;0.35;;;;;;;6.36;87.51;99790.25;9953900;29;20062;-87
2023/01/13 07:19:22;;;;;;;0.68;0.45;;;;;;;6.41;87.49;99779.94;9915424;29;20555;-86
2023/01/13 07:24:24;;;;;;;0.20;0.20;;;;;;;6.42;86.94;99773.00;9912889;29;20230;-85
2023/01/13 07:29:26;;;;;;;0.47;0.30;;;;;;;6.43;87.13;99777.34;9942722;29;20238;-84
2023/01/13 07:34:28;;;;;;;2.05;0.45;;;;;;;6.49;87.30;99777.47;9927942;29;20520;-84
2023/01/13 07:39:29;;;;;;;1.80;0.50;;;;;;;6.59;86.29;99781.09;9934782;29;20484;-85
2023/01/13 07:44:34;;;;;;;0.10;0.10;;;;;;;6.66;86.11;99777.75;9928754;29;20520;-85
2023/01/13 07:49:36;;;;;;;5.93;0.95;;;;;;;6.69;85.80;99773.44;9948325;29;20400;-87
2023/01/13 07:54:37;;;;;;;0.52;0.43;;;;;;;6.69;85.55;99776.06;9947632;29;20454;-85
2023/01/13 07:59:41;;;;;;;3.33;1.00;;;;;;;6.69;85.28;99783.00;9962152;29;20287;-83
2023/01/13 08:04:43;;;;;;;0.05;0.05;;;;;;;6.68;84.67;99781.22;9981059;29;20125;-82
2023/01/13 08:09:44;;;;;;;2.28;0.57;;;;;;;6.66;84.18;99785.53;9947959;29;20431;-84
2023/01/13 08:14:46;;;;;;;0.13;0.13;;;;;;;6.70;83.73;99788.22;9927983;29;20065;-83
2023/01/13 08:19:48;;;;;;;1.92;0.43;;;;;;;6.65;83.60;99791.59;9929764;29;20069;-82
2023/01/13 08:24:49;;;;;;;0.00;0.00;;;;;;;6.77;83.37;99797.03;9941178;29;20054;-84
2023/01/13 08:29:51;;;;;;;0.10;0.03;;;;;;;6.86;83.14;99804.06;9930206;29;20512;-83
2023/01/13 08:34:53;;;;;;;9.65;0.90;;;;;;;6.90;82.93;99801.59;9915573;29;20149;-83
2023/01/13 08:39:54;;;;;;;0.20;0.20;;;;;;;6.97;82.63;99814.69;9939916;29;20073;-83
2023/01/13 08:44:56;;;;;;;0.10;0.10;;;;;;;7.00;82.29;99794.78;9945732;29;20054;-83
2023/01/13 08:49:58;;;;;;;0.10;0.10;;;;;;;7.01;82.22;99813.88;9938360;29;20138;-83
2023/01/13 08:54:59;;;;;;;6.40;0.45;;;;;;;7.01;82.20;99806.06;9934618;29;20051;-83
2023/01/13 09:00:04;;;;;;;3.50;0.98;;;;;;;7.00;82.23;99807.78;9924190;29;20802;-83
2023/01/13 09:05:06;;;;;;;4.47;1.33;;;;;;;7.06;82.06;99812.22;9934503;29;20081;-83
2023/01/13 09:10:08;;;;;;;0.30;0.30;;;;;;;7.10;81.97;99808.81;9943373;29;20069;-83
2023/01/13 09:15:11;;;;;;;0.00;0.00;;;;;;;7.11;81.86;99807.09;9933739;29;20447;-83
2023/01/13 09:20:13;;;;;;;0.50;0.40;;;;;;;7.11;82.09;99810.56;9938612;29;20654;-82
2023/01/13 09:25:14;;;;;;;3.20;1.02;;;;;;;7.14;82.19;99834.03;9943746;29;20060;-83
2023/01/13 09:30:16;;;;;;;0.10;0.10;;;;;;;7.10;82.41;99841.78;9942030;29;20125;-84
2023/01/13 09:35:18;;;;;;;1.33;0.93;;;;;;;7.00;83.01;99856.38;9928530;29;20067;-84
2023/01/13 09:40:21;;;;;;;0.10;0.10;;;;;;;6.80;83.64;99872.53;9915986;29;20063;-84
2023/01/13 09:46:42;;;;;;;1.00;0.40;;;;;;;6.63;84.72;99851.38;9908332;29;20535;-85
2023/01/13 09:51:41;;;;;;;0.22;0.22;;;;;;;6.58;85.83;99879.06;9906095;29;20062;-84
2023/01/13 09:56:44;;;;;;;1.67;0.98;;;;;;;6.41;86.67;99876.16;9906572;29;20058;-87
2023/01/13 10:02:18;;;;;;;0.20;0.20;;;;;;;6.26;87.58;99866.31;9909277;29;20478;-87
2023/01/13 10:07:30;;;;;;;0.35;0.10;;;;;;;6.26;88.44;99875.81;9920409;29;20046;-86
2023/01/13 10:18:02;;;;;;;4.43;1.05;;;;;;;6.37;89.58;99861.31;9917968;29;20090;-85
2023/01/13 10:23:41;;;;;;;0.45;0.45;;;;;;;6.50;89.85;99858.13;9932956;29;20677;-87
2023/01/13 10:28:58;;;;;;;0.80;0.20;;;;;;;6.68;90.00;99864.47;9925696;29;20046;-86
2023/01/13 10:34:50;;;;;;;0.30;0.30;;;;;;;6.72;89.70;99855.88;9936310;29;20609;-85
2023/01/13 10:40:00;;;;;;;0.47;0.30;;;;;;;6.79;89.45;99864.69;9924575;29;20397;-85
2023/01/13 10:45:02;;;;;;;0.45;0.22;;;;;;;6.84;89.41;99868.25;9901749;29;20059;-85
2023/01/13 10:50:10;;;;;;;0.68;0.45;;;;;;;6.86;89.13;99872.63;9908234;29;20059;-86
2023/01/13 10:55:38;;;;;;;0.22;0.10;;;;;;;6.86;89.04;99861.31;9923596;29;20058;-84
2023/01/13 11:00:40;;;;;;;0.20;0.20;;;;;;;6.78;89.30;99865.53;9912675;29;20583;-84
2023/01/13 11:05:55;;;;;;;0.77;0.50;;;;;;;6.70;89.65;99868.00;9914209;29;20043;-84
2023/01/13 11:11:01;;;;;;;0.70;0.50;;;;;;;6.71;89.53;99874.94;9901996;29;20066;-85
2023/01/13 11:16:15;;;;;;;0.40;0.20;;;;;;;6.74;89.13;99875.03;9924959;29;20055;-84
2023/01/13 11:21:27;;;;;;;3.30;1.00;;;;;;;6.80;88.88;99877.72;9926437;29;20228;-85
2023/01/13 11:26:51;;;;;;;1.63;0.82;;;;;;;6.88;88.45;99889.13;9928910;29;20486;-84
2023/01/13 11:32:17;;;;;;;1.13;0.30;;;;;;;6.94;88.25;99885.78;9921514;29;20101;-85
2023/01/13 11:37:31;;;;;;;0.82;0.40;;;;;;;6.93;87.94;99885.75;9923862;29;20102;-81
2023/01/13 11:42:47;;;;;;;3.72;0.95;;;;;;;6.69;88.33;99898.31;9932653;29;20056;-82
2023/01/13 11:47:53;;;;;;;0.22;0.22;;;;;;;6.46;88.95;99895.31;9939250;29;20114;-82
2023/01/13 11:53:11;;;;;;;1.10;0.30;;;;;;;6.36;89.70;99896.88;9936504;29;20511;-83
2023/01/13 11:58:42;;;;;;;0.52;0.22;;;;;;;6.40;90.37;99895.19;9940278;29;20066;-83
2023/01/13 12:04:22;;;;;;;0.75;0.40;;;;;;;6.42;90.75;99903.88;9918127;29;20051;-84
2023/01/13 12:09:51;;;;;;;3.13;1.00;;;;;;;6.51;90.93;99893.66;9935532;29;20048;-82
2023/01/13 12:15:14;;;;;;;6.93;0.82;;;;;;;6.57;90.87;99900.72;9923810;29;20085;-84
2023/01/13 12:20:44;;;;;;;0.10;0.10;;;;;;;6.62;90.97;99898.19;9932179;29;20129;-83
2023/01/13 12:25:51;;;;;;;1.75;1.00;;;;;;;6.62;90.74;99916.41;9928014;29;20055;-84
2023/01/13 12:31:02;;;;;;;0.20;0.20;;;;;;;6.65;90.77;99914.75;9934679;29;20086;-85
2023/01/13 12:36:31;;;;;;;0.65;0.52;;;;;;;6.63;90.89;99920.75;9906791;29;20067;-82
2023/01/13 12:44:15;;;;;;;0.43;0.13;;;;;;;6.60;90.91;99918.09;9946053;29;20059;-82
2023/01/13 12:47:00;;;;;;;6.63;1.35;;;;;;;6.73;90.99;99899.28;9934708;29;20112;-82
2023/01/13 12:52:09;;;;;;;0.25;0.25;;;;;;;6.81;90.54;99907.22;9942969;29;20141;-83
2023/01/13 12:57:22;;;;;;;1.00;0.95;;;;;;;6.90;90.53;99923.91;9952161;29;20124;-83
2023/01/13 13:02:38;;;;;;;0.30;0.30;;;;;;;6.99;90.01;99930.09;9931099;29;20075;-83
2023/01/13 13:07:46;;;;;;;6.93;0.20;;;;;;;7.04;89.72;99926.75;9931756;29;20104;-83
2023/01/13 13:18:26;;;;;;;0.20;0.20;;;;;;;7.07;89.15;99944.13;9916097;29;20452;-85
2023/01/13 13:23:49;;;;;;;0.75;0.60;;;;;;;7.05;88.87;99944.09;9923583;29;20115;-85
2023/01/13 13:29:19;;;;;;;0.63;0.52;;;;;;;6.95;88.93;99952.59;9935043;29;20050;-85
2023/01/13 13:34:26;;;;;;;0.20;0.20;;;;;;;6.96;89.46;99938.72;9932355;29;20166;-85
2023/01/13 13:50:35;;;;;;;;;;;;;;;7.12;88.88;99967.66;9929863;29;20062;-87
2023/01/13 13:56:19;;;;;;;0.40;0.40;;;;;;;7.06;88.73;99977.09;9925931;29;20027;-86
2023/01/13 14:01:25;;;;;;;2.92;1.10;;;;;;;6.97;88.87;99991.69;9912746;29;20059;-82
2023/01/13 14:06:28;;;;;;;0.38;0.38;;;;;;;6.78;89.46;99996.50;9918023;29;20051;-82
2023/01/13 14:11:32;;;;;;;0.10;0.10;;;;;;;6.73;89.88;100013.75;9933838;29;20473;-82
2023/01/13 14:16:36;;;;;;;0.20;0.20;;;;;;;6.72;90.27;99999.88;9946631;29;20134;-82
2023/01/13 14:21:38;;;;;;;0.65;0.55;;;;;;;6.78;89.94;100011.25;9946078;29;20466;-82
2023/01/13 14:26:40;;;;;;;0.45;0.40;;;;;;;6.68;90.22;100041.38;9932635;29;20047;-82
2023/01/13 14:31:43;;;;;;;0.15;0.15;;;;;;;6.53;90.59;100018.53;9953073;29;20058;-83
2023/01/13 14:36:49;;;;;;;0.20;0.20;;;;;;;6.47;91.52;100042.72;9941333;29;20134;-82
2023/01/13 14:41:52;;;;;;;0.10;0.10;;;;;;;6.56;91.62;100039.44;9943521;29;20455;-82
2023/01/13 14:46:56;;;;;;;1.08;0.55;;;;;;;6.58;91.79;100053.34;9931434;29;20062;-83
2023/01/13 14:52:19;;;;;;;0.25;0.20;;;;;;;6.59;91.70;100064.63;9943395;29;20063;-81
2023/01/13 14:57:30;;;;;;;0.13;0.13;;;;;;;6.55;91.71;100058.47;9934346;29;20056;-81
2023/01/13 15:02:39;;;;;;;3.00;0.73;;;;;;;6.54;91.75;100068.03;9932017;29;20199;-81
2023/01/13 15:07:48;;;;;;;0.52;0.22;;;;;;;6.52;91.74;100082.69;9938964;29;20081;-81
2023/01/13 15:12:53;;;;;;;1.35;0.75;;;;;;;6.60;91.61;100085.47;9934259;29;20192;-81
2023/01/13 15:17:55;;;;;;;0.75;0.40;;;;;;;6.59;91.38;100094.13;9941798;29;20047;-83
2023/01/13 15:22:58;;;;;;;0.55;0.55;;;;;;;6.63;91.21;100115.88;9930883;29;20101;-83
2023/01/13 15:28:00;;;;;;;5.13;0.45;;;;;;;6.63;90.95;100090.72;9926036;29;20061;-83
2023/01/13 15:33:02;;;;;;;1.45;0.90;;;;;;;6.75;90.48;100108.34;9917340;29;20143;-85
2023/01/13 15:38:12;;;;;;;0.15;0.15;;;;;;;6.75;90.18;100121.34;9914896;29;20047;-86
2023/01/13 15:48:41;;;;;;;1.10;0.45;;;;;;;6.77;89.68;100122.28;9894177;29;20043;-86
2023/01/13 15:53:44;;;;;;;0.28;0.28;;;;;;;6.77;89.40;100124.88;9923694;29;20054;-86
2023/01/13 15:58:46;;;;;;;1.30;0.95;;;;;;;6.84;89.01;100128.47;9910636;29;20559;-85
2023/01/13 16:03:51;;;;;;;1.08;0.90;;;;;;;6.90;88.75;100146.81;9930277;29;20229;-83
2023/01/13 16:08:58;;;;;;;0.95;0.47;;;;;;;6.89;88.64;100161.56;9919545;29;20316;-86
2023/01/13 16:14:02;;;;;;;3.50;0.90;;;;;;;6.97;88.27;100171.28;9902131;29;20059;-87
2023/01/13 16:19:34;;;;;;;0.70;0.20;;;;;;;6.93;87.94;100169.44;9890082;29;20138;-86
2023/01/13 16:24:42;;;;;;;0.00;0.00;;;;;;;6.97;87.75;100200.78;9919924;29;20073;-86
2023/01/13 16:30:34;;;;;;;0.13;0.10;;;;;;;6.99;87.37;100203.41;9917983;29;20047;-88
2023/01/13 16:35:43;;;;;;;0.57;0.47;;;;;;;6.99;87.26;100229.44;9911933;29;20380;-87
2023/01/13 16:41:07;;;;;;;0.67;0.30;;;;;;;6.98;87.17;100214.66;9921518;29;20063;-87
2023/01/13 16:47:08;;;;;;;;;;;;;;;;;;;;;
2023/01/13 16:52:53;;;;;;;0.77;0.47;;;;;;;6.89;86.85;100265.69;10004697;24;20026;-89
2023/01/13 16:58:29;;;;;;;2.40;0.63;;;;;;;6.93;87.09;100263.16;9946896;29;20050;-86
2023/01/13 17:04:16;;;;;;;0.28;0.28;;;;;;;6.92;86.92;100279.59;9916114;29;20067;-87
2023/01/13 17:09:36;;;;;;;0.15;0.15;;;;;;;6.83;87.23;100299.38;9931842;29;20054;-83
2023/01/13 17:14:38;;;;;;;0.63;0.30;;;;;;;6.70;87.88;100299.91;9931156;29;20043;-82
2023/01/13 17:19:40;;;;;;;3.60;0.82;;;;;;;6.58;88.55;100276.19;9925808;29;20050;-84
2023/01/13 17:24:42;;;;;;;1.00;0.90;;;;;;;6.59;88.61;100288.34;9924096;29;20051;-83
2023/01/13 17:29:43;;;;;;;0.80;0.32;;;;;;;6.55;89.04;100360.22;9936389;29;20043;-83
2023/01/13 17:34:46;;;;;;;0.10;0.10;;;;;;;5.76;89.08;100329.41;9944584;29;20332;-82
2023/01/13 17:39:49;;;;;;;0.10;0.10;;;;;;;5.39;89.37;100351.69;9943378;29;20313;-83
2023/01/13 17:44:51;;;;;;;0.10;0.10;;;;;;;5.31;89.91;100355.75;9940084;29;20059;-82
2023/01/13 17:49:52;;;;;;;0.20;0.20;;;;;;;5.44;90.90;100365.69;9936020;29;20524;-82
2023/01/13 17:54:54;;;;;;;0.57;0.57;;;;;;;5.72;91.58;100361.34;9938676;29;20370;-82
2023/01/13 17:59:58;;;;;;;0.40;0.35;;;;;;;5.85;92.06;100362.56;9940740;29;20472;-83
2023/01/13 18:05:00;;;;;;;3.90;1.73;;;;;;;5.87;92.65;100375.59;9924601;29;20063;-83
2023/01/13 18:10:01;;;;;;;1.92;1.00;;;;;;;5.86;92.90;100385.13;9939632;29;20322;-83
2023/01/13 18:15:03;;;;;;;16.10;3.75;;;;;;;5.93;93.08;100391.38;9920486;29;20051;-84
2023/01/13 18:30:46;;;;;;;1.00;0.55;;;;;;;5.97;93.67;100424.47;9932574;29;20061;-83
2023/01/13 18:35:49;;;;;;;0.52;0.52;;;;;;;5.96;93.85;100428.75;9923760;29;20066;-83
2023/01/13 18:40:50;;;;;;;0.75;0.70;;;;;;;5.98;93.95;100431.44;9934324;29;20138;-82
2023/01/13 18:45:52;;;;;;;1.08;0.57;;;;;;;5.91;93.96;100430.31;9944914;29;20589;-83
2023/01/13 18:50:53;;;;;;;0.17;0.17;;;;;;;5.89;94.31;100438.91;9931604;29;20059;-84
2023/01/13 18:55:55;;;;;;;1.98;0.70;;;;;;;5.91;94.17;100445.03;9928428;29;20082;-84
2023/01/13 19:01:02;;;;;;;2.20;1.02;;;;;;;5.91;94.35;100456.31;9933019;29;20085;-84
2023/01/13 19:06:06;;;;;;;0.13;0.13;;;;;;;5.92;94.35;100462.41;9930800;29;20054;-84
2023/01/13 19:11:08;;;;;;;11.38;1.10;;;;;;;5.90;94.48;100475.34;9927053;29;20055;-84
2023/01/13 19:16:10;;;;;;;0.93;0.75;;;;;;;5.93;94.38;100487.53;9918858;29;20069;-84
2023/01/13 19:21:12;;;;;;;2.45;1.35;;;;;;;6.02;94.41;100487.88;9917099;29;20055;-84
2023/01/13 19:26:14;;;;;;;0.32;0.25;;;;;;;6.06;94.32;100497.50;9928487;29;20066;-84
2023/01/13 19:31:16;;;;;;;0.10;0.10;;;;;;;6.13;94.00;100504.66;9922632;29;20082;-87
2023/01/13 19:36:17;;;;;;;5.32;1.90;;;;;;;6.18;94.58;100504.81;9911803;29;20124;-87
2023/01/13 19:46:39;;;;;;;0.30;0.30;;;;;;;6.15;93.86;100521.19;9914746;29;20101;-86
2023/01/13 19:51:41;;;;;;;0.35;0.25;;;;;;;6.13;93.41;100545.41;9922679;29;20057;-85
2023/01/13 19:56:50;;;;;;;1.23;0.65;;;;;;;6.15;93.35;100549.78;9939439;29;20086;-86
2023/01/13 20:01:52;;;;;;;0.20;0.20;;;;;;;6.16;93.12;100561.09;9932529;29;20057;-88
2023/01/13 20:07:01;;;;;;;0.13;0.13;;;;;;;6.15;92.98;100565.38;9919611;29;20055;-87
2023/01/13 20:12:13;;;;;;;2.85;0.82;;;;;;;6.14;92.84;100579.22;9927357;29;20058;-86
2023/01/13 20:17:21;;;;;;;4.28;2.08;;;;;;;6.19;92.73;100595.84;9917568;29;20146;-89
2023/01/13 20:23:27;;;;;;;;;;;;;;;;;;;;;
2023/01/13 20:29:52;;;;;;;3.40;1.05;;;;;;;6.29;92.40;100611.75;9924761;29;20077;-87
2023/01/13 21:01:49;;;;;;;0.15;0.15;;;;;;;6.23;91.77;100668.75;9886416;29;20500;-85
2023/01/13 21:06:51;;;;;;;0.60;0.40;;;;;;;6.16;91.81;100671.16;9895675;29;20059;-86
2023/01/13 21:22:37;;;;;;;0.20;0.20;;;;;;;6.12;92.29;100713.47;9973298;29;20059;-83
2023/01/13 21:27:40;;;;;;;3.83;2.05;;;;;;;6.01;92.63;100725.25;9941773;29;20082;-82
2023/01/13 21:32:42;;;;;;;0.30;0.30;;;;;;;5.89;93.20;100730.84;9909185;29;20055;-84
2023/01/13 21:37:44;;;;;;;0.63;0.20;;;;;;;5.84;93.33;100732.41;9901051;29;20477;-84
2023/01/13 21:48:07;;;;;;;0.80;0.73;;;;;;;5.82;94.44;100737.56;9925132;29;20103;-84
2023/01/13 21:53:08;;;;;;;0.15;0.15;;;;;;;5.82;94.60;100740.16;9918504;29;20059;-84
2023/01/13 21:58:12;;;;;;;0.65;0.40;;;;;;;5.81;94.84;100748.78;9903937;29;20085;-84
2023/01/13 22:03:14;;;;;;;0.10;0.10;;;;;;;5.74;95.09;100764.97;9913510;29;20085;-83
2023/01/13 22:08:16;;;;;;;0.80;0.30;;;;;;;5.70;95.02;100783.88;9928226;29;20260;-85
2023/01/13 22:18:38;;;;;;;2.80;1.25;;;;;;;5.66;95.15;100797.59;9928445;29;20141;-86
2023/01/13 22:23:40;;;;;;;1.55;0.95;;;;;;;5.61;95.40;100809.50;9923632;29;20055;-85
2023/01/13 22:28:42;;;;;;;0.20;0.20;;;;;;;5.61;95.11;100815.56;9925900;29;20074;-86
2023/01/13 22:33:48;;;;;;;0.75;0.75;;;;;;;5.61;95.04;100818.19;9922412;29;20815;-86
2023/01/13 22:38:59;;;;;;;0.17;0.17;;;;;;;5.54;94.79;100829.19;9921841;29;20073;-86
2023/01/13 22:44:06;;;;;;;1.33;0.90;;;;;;;5.44;94.79;100832.25;9902176;29;20116;-85
2023/01/13 22:49:16;;;;;;;0.55;0.32;;;;;;;5.44;94.50;100835.72;9889263;29;20059;-87
2023/01/13 22:54:20;;;;;;;0.20;0.20;;;;;;;5.45;94.48;100850.50;9904701;29;20062;-88
2023/01/13 22:59:43;;;;;;;0.13;0.13;;;;;;;5.48;94.51;100847.13;9898940;29;20477;-87
2023/01/13 23:04:57;;;;;;;1.35;0.95;;;;;;;5.51;94.58;100854.13;9895247;29;20067;-87
2023/01/13 23:15:58;;;;;;;0.10;0.10;;;;;;;5.53;94.58;100857.69;9906440;24;20062;-87
2023/01/13 23:21:24;;;;;;;0.10;0.10;;;;;;;5.50;94.52;100866.25;9898244;29;20061;-87
2023/01/13 23:26:38;;;;;;;0.13;0.13;;;;;;;5.47;94.78;100864.41;9865827;29;20343;-86
2023/01/13 23:32:03;;;;;;;0.20;0.20;;;;;;;5.50;94.76;100874.03;9890570;29;20058;-87
2023/01/13 23:37:25;;;;;;;0.20;0.15;;;;;;;5.52;94.73;100876.69;9895103;29;20060;-86
2023/01/13 23:42:39;;;;;;;0.10;0.10;;;;;;;5.48;94.88;100879.19;9885039;29;20150;-88
2023/01/13 23:48:13;;;;;;;8.05;0.30;;;;;;;5.49;94.84;100878.38;9853068;29;20061;-86
